createdAt,value
2017-06-28T00:01:43.697Z,81.50
2017-06-28T00:04:09.723Z,81.50
2017-06-28T00:06:35.717Z,81.50
2017-06-28T00:09:01.739Z,81.20
2017-06-28T00:11:36.225Z,82.00
2017-06-28T00:14:02.233Z,81.00
2017-06-28T00:16:28.215Z,81.20
2017-06-28T00:18:54.297Z,80.60
2017-06-28T00:21:20.285Z,80.50
2017-06-28T00:23:46.280Z,81.40
2017-06-28T00:26:12.283Z,81.20
2017-06-28T00:28:38.273Z,81.30
2017-06-28T00:31:04.278Z,81.70
2017-06-28T00:33:30.271Z,81.20
2017-06-28T00:35:57.024Z,80.80
2017-06-28T00:38:23.040Z,80.00
2017-06-28T00:40:49.038Z,80.00
2017-06-28T00:43:15.015Z,80.80
2017-06-28T00:45:41.004Z,80.70
2017-06-28T00:48:07.047Z,80.80
2017-06-28T00:50:33.043Z,81.20
2017-06-28T00:52:59.035Z,81.10
2017-06-28T00:55:25.799Z,81.00
2017-06-28T00:57:51.784Z,80.90
2017-06-28T01:00:17.787Z,81.30
2017-06-28T01:02:43.787Z,80.70
2017-06-28T01:05:10.866Z,80.40
2017-06-28T01:07:36.875Z,79.50
2017-06-28T01:10:02.887Z,79.10
2017-06-28T01:12:29.632Z,79.50
2017-06-28T01:14:56.374Z,79.80
2017-06-28T01:17:23.134Z,80.60
2017-06-28T01:19:49.119Z,81.40
2017-06-28T01:22:15.201Z,81.30
2017-06-28T01:24:41.223Z,81.70
2017-06-28T01:27:07.228Z,82.30
2017-06-28T01:29:33.964Z,82.80
2017-06-28T01:32:00.751Z,82.60
2017-06-28T01:34:26.784Z,82.50
2017-06-28T01:36:52.787Z,83.30
2017-06-28T01:39:19.533Z,84.30
2017-06-28T01:41:46.295Z,84.30
2017-06-28T01:44:12.310Z,84.30
2017-06-28T01:46:39.038Z,84.20
2017-06-28T01:49:05.791Z,84.50
2017-06-28T01:51:32.561Z,84.80
2017-06-28T01:53:58.559Z,84.80
2017-06-28T01:56:25.288Z,84.50
2017-06-28T01:58:51.325Z,84.30
2017-06-28T02:01:17.324Z,84.30
2017-06-28T02:03:43.348Z,84.30
2017-06-28T02:06:09.348Z,84.70
2017-06-28T02:08:35.331Z,84.90
2017-06-28T02:11:01.398Z,84.90
2017-06-28T02:13:28.119Z,85.00
2017-06-28T02:15:54.139Z,84.90
2017-06-28T02:18:20.131Z,85.50
2017-06-28T02:20:46.137Z,84.70
2017-06-28T02:23:12.123Z,84.70
2017-06-28T02:25:38.131Z,85.00
2017-06-28T02:28:04.125Z,85.00
2017-06-28T02:30:30.119Z,84.60
2017-06-28T02:32:56.339Z,84.60
2017-06-28T02:35:22.367Z,84.70
2017-06-28T02:37:48.353Z,85.10
2017-06-28T02:40:14.336Z,85.10
2017-06-28T02:42:40.335Z,84.50
2017-06-28T02:45:06.315Z,84.00
2017-06-28T02:47:32.315Z,84.70
2017-06-28T02:49:58.324Z,84.40
2017-06-28T02:52:24.333Z,84.40
2017-06-28T02:54:50.319Z,83.40
2017-06-28T02:57:17.060Z,82.80
2017-06-28T02:59:43.052Z,82.70
2017-06-28T03:02:09.092Z,82.30
2017-06-28T03:04:35.129Z,82.30
2017-06-28T03:07:13.588Z,82.60
2017-06-28T03:09:39.575Z,83.40
2017-06-28T03:12:05.548Z,84.10
2017-06-28T03:14:31.585Z,85.60
2017-06-28T03:16:57.624Z,86.00
2017-06-28T03:19:23.639Z,85.50
2017-06-28T03:21:49.627Z,85.60
2017-06-28T03:24:15.640Z,85.20
2017-06-28T03:26:41.623Z,84.50
2017-06-28T03:29:07.637Z,84.70
2017-06-28T03:31:34.367Z,86.60
2017-06-28T03:34:01.121Z,87.70
2017-06-28T03:36:27.846Z,89.60
2017-06-28T03:38:53.844Z,89.50
2017-06-28T03:41:19.908Z,89.50
2017-06-28T03:43:46.773Z,90.70
2017-06-28T03:46:13.518Z,91.50
2017-06-28T03:48:40.248Z,92.00
2017-06-28T03:51:06.248Z,92.10
2017-06-28T03:53:32.237Z,91.40
2017-06-28T03:55:58.230Z,91.30
2017-06-28T03:58:24.220Z,91.60
2017-06-28T04:00:50.230Z,91.90
2017-06-28T04:03:16.219Z,92.50
2017-06-28T04:05:42.223Z,92.40
2017-06-28T04:08:08.219Z,93.00
2017-06-28T04:10:34.248Z,93.40
2017-06-28T04:13:00.273Z,93.10
2017-06-28T04:15:26.300Z,93.20
2017-06-28T04:17:52.300Z,93.50
2017-06-28T04:20:19.059Z,94.10
2017-06-28T04:22:45.799Z,94.00
2017-06-28T04:25:12.560Z,93.40
2017-06-28T04:27:39.314Z,94.00
2017-06-28T04:30:05.303Z,94.00
2017-06-28T04:32:31.300Z,94.00
2017-06-28T04:34:57.283Z,93.50
2017-06-28T04:37:23.287Z,93.60
2017-06-28T04:39:49.295Z,92.90
2017-06-28T04:42:15.335Z,93.40
2017-06-28T04:44:41.348Z,93.20
2017-06-28T04:47:07.347Z,93.40
2017-06-28T04:49:34.135Z,93.60
2017-06-28T04:52:00.127Z,93.90
2017-06-28T04:54:26.164Z,94.00
2017-06-28T04:56:52.159Z,94.00
2017-06-28T04:59:18.930Z,93.50
2017-06-28T05:01:44.915Z,93.50
2017-06-28T05:04:10.951Z,93.50
2017-06-28T05:06:36.944Z,94.10
2017-06-28T05:09:03.004Z,93.80
2017-06-28T05:11:29.039Z,94.00
2017-06-28T05:13:55.208Z,93.30
2017-06-28T05:16:21.208Z,93.10
2017-06-28T05:18:47.936Z,93.40
2017-06-28T05:21:13.931Z,93.40
2017-06-28T05:23:39.925Z,93.30
2017-06-28T05:26:05.916Z,93.10
2017-06-28T05:28:31.900Z,93.10
2017-06-28T05:30:57.899Z,93.20
2017-06-28T05:33:24.656Z,93.30
2017-06-28T05:35:51.436Z,93.40
2017-06-28T05:38:17.445Z,93.40
2017-06-28T05:40:43.453Z,93.00
2017-06-28T05:43:10.224Z,93.10
2017-06-28T05:45:36.219Z,92.70
2017-06-28T05:48:02.985Z,92.30
2017-06-28T05:50:28.992Z,92.00
2017-06-28T05:52:55.001Z,92.30
2017-06-28T05:55:21.003Z,92.30
2017-06-28T05:57:46.999Z,92.10
2017-06-28T06:00:19.755Z,91.90
2017-06-28T06:02:46.534Z,92.20
2017-06-28T06:05:12.551Z,92.20
2017-06-28T06:07:39.296Z,91.80
2017-06-28T06:10:06.064Z,92.00
2017-06-28T06:12:32.055Z,91.90
2017-06-28T06:14:58.817Z,92.20
2017-06-28T06:17:28.903Z,92.10
2017-06-28T06:19:55.077Z,92.10
2017-06-28T06:22:21.067Z,91.80
2017-06-28T06:24:50.659Z,91.40
2017-06-28T06:27:16.643Z,91.40
2017-06-28T06:29:42.689Z,91.40
2017-06-28T06:32:08.683Z,91.50
2017-06-28T06:34:35.432Z,92.10
2017-06-28T06:37:01.447Z,92.20
2017-06-28T06:39:27.582Z,92.10
2017-06-28T06:42:03.751Z,92.60
2017-06-28T06:44:29.779Z,92.60
2017-06-28T06:46:55.759Z,92.90
2017-06-28T06:49:21.777Z,93.30
2017-06-28T06:51:51.886Z,93.40
2017-06-28T06:54:17.972Z,93.70
2017-06-28T06:56:43.974Z,93.70
2017-06-28T06:59:10.004Z,94.40
2017-06-28T07:01:36.007Z,99.90
2017-06-28T07:04:02.041Z,99.90
2017-06-28T07:06:28.051Z,99.90
2017-06-28T07:08:54.990Z,99.90
2017-06-28T07:11:20.995Z,99.90
2017-06-28T07:13:46.980Z,99.90
2017-06-28T07:16:12.979Z,99.90
2017-06-28T07:18:39.735Z,99.90
2017-06-28T07:21:09.483Z,99.90
2017-06-28T07:23:35.495Z,99.90
2017-06-28T07:26:01.483Z,99.90
2017-06-28T07:28:27.500Z,99.90
2017-06-28T07:30:53.489Z,99.90
2017-06-28T07:33:19.489Z,99.90
2017-06-28T07:35:50.008Z,99.90
2017-06-28T07:38:16.023Z,99.90
2017-06-28T07:40:42.048Z,99.90
2017-06-28T07:43:08.049Z,99.90
2017-06-28T07:45:34.129Z,99.90
2017-06-28T07:48:09.440Z,99.90
2017-06-28T07:50:35.452Z,99.90
2017-06-28T07:53:02.512Z,99.90
2017-06-28T07:55:28.586Z,99.90
2017-06-28T07:57:55.643Z,94.60
2017-06-28T08:00:22.634Z,96.10
2017-06-28T08:02:48.638Z,96.10
2017-06-28T08:05:14.751Z,95.20
2017-06-28T08:07:41.476Z,96.70
2017-06-28T08:10:07.507Z,96.70
2017-06-28T08:12:33.505Z,97.80
2017-06-28T08:14:59.509Z,97.10
2017-06-28T08:17:36.981Z,94.30
2017-06-28T08:20:03.737Z,94.20
2017-06-28T08:22:29.739Z,94.20
2017-06-28T08:24:55.723Z,94.50
2017-06-28T08:27:28.374Z,94.00
2017-06-28T08:29:54.369Z,92.30
2017-06-28T08:32:20.443Z,92.60
2017-06-28T08:34:50.515Z,93.00
2017-06-28T08:37:16.523Z,92.50
2017-06-28T08:39:42.503Z,93.00
2017-06-28T08:42:08.499Z,91.40
2017-06-28T08:44:34.482Z,91.80
2017-06-28T08:47:10.594Z,91.50
2017-06-28T08:49:36.612Z,91.90
2017-06-28T08:52:02.616Z,91.30
2017-06-28T08:54:28.651Z,88.50
2017-06-28T08:56:54.679Z,90.80
2017-06-28T08:59:20.667Z,90.90
2017-06-28T09:01:46.646Z,89.50
2017-06-28T09:04:19.550Z,90.20
2017-06-28T09:06:45.543Z,89.00
2017-06-28T09:09:11.540Z,88.90
2017-06-28T09:11:38.271Z,90.20
2017-06-28T09:14:08.980Z,89.10
2017-06-28T09:16:34.987Z,88.60
2017-06-28T09:19:00.991Z,87.30
2017-06-28T09:21:33.739Z,86.50
2017-06-28T09:23:59.768Z,87.70
2017-06-28T09:26:25.775Z,87.20
2017-06-28T09:28:51.775Z,86.60
2017-06-28T09:31:17.760Z,86.60
2017-06-28T09:33:44.523Z,84.70
2017-06-28T09:36:11.273Z,83.20
2017-06-28T09:38:37.275Z,83.20
2017-06-28T09:41:03.289Z,83.80
2017-06-28T09:43:34.720Z,80.10
2017-06-28T09:46:00.738Z,83.60
2017-06-28T09:48:26.733Z,84.00
2017-06-28T09:50:53.520Z,82.80
2017-06-28T09:53:19.509Z,82.80
2017-06-28T09:55:45.524Z,82.10
2017-06-28T09:58:12.267Z,83.90
2017-06-28T10:00:39.011Z,83.90
2017-06-28T10:03:09.208Z,83.90
2017-06-28T10:05:35.209Z,83.10
2017-06-28T10:08:01.195Z,84.70
2017-06-28T10:10:27.933Z,83.00
2017-06-28T10:12:53.949Z,82.90
2017-06-28T10:15:19.960Z,84.00
2017-06-28T10:17:45.968Z,85.10
2017-06-28T10:20:11.955Z,84.40
2017-06-28T10:22:42.659Z,85.40
2017-06-28T10:25:12.992Z,84.60
2017-06-28T10:27:44.407Z,84.40
2017-06-28T10:30:18.568Z,83.90
2017-06-28T10:32:44.603Z,84.00
2017-06-28T10:35:10.724Z,81.40
2017-06-28T10:37:36.848Z,81.00
2017-06-28T10:40:03.892Z,79.20
2017-06-28T10:42:30.991Z,75.60
2017-06-28T10:45:04.463Z,74.50
2017-06-28T10:47:47.932Z,74.50
2017-06-28T10:50:17.267Z,74.80
2017-06-28T10:52:47.635Z,75.30
2017-06-28T10:55:20.035Z,73.60
2017-06-28T10:57:55.347Z,71.40
2017-06-28T11:03:15.336Z,72.50
2017-06-28T11:05:41.328Z,71.20
2017-06-28T11:08:07.342Z,71.80
2017-06-28T11:10:33.335Z,72.90
2017-06-28T11:13:03.415Z,73.60
2017-06-28T11:15:29.731Z,73.80
2017-06-28T11:18:01.111Z,74.30
2017-06-28T11:20:42.540Z,72.90
2017-06-28T11:23:30.065Z,73.90
2017-06-28T11:26:21.673Z,72.60
2017-06-28T11:28:52.362Z,72.60
2017-06-28T11:31:26.603Z,71.90
2017-06-28T11:33:58.975Z,67.60
2017-06-28T11:36:25.025Z,65.20
2017-06-28T11:38:58.607Z,67.70
2017-06-28T11:41:35.144Z,67.50
2017-06-28T11:44:08.367Z,66.40
2017-06-28T11:46:34.371Z,65.40
2017-06-28T11:49:16.099Z,65.40
2017-06-28T11:51:42.857Z,62.80
2017-06-28T11:54:20.009Z,60.90
2017-06-28T11:56:54.348Z,61.00
2017-06-28T11:59:24.731Z,54.00
2017-06-28T12:02:00.951Z,53.50
2017-06-28T12:04:33.403Z,46.10
2017-06-28T12:07:02.803Z,46.00
2017-06-28T12:09:39.068Z,47.40
2017-06-28T12:12:08.395Z,44.70
2017-06-28T12:14:38.611Z,52.80
2017-06-28T12:17:08.968Z,55.00
2017-06-28T12:19:35.016Z,55.10
2017-06-28T12:22:04.672Z,55.10
2017-06-28T12:24:48.016Z,55.80
2017-06-28T12:27:18.508Z,57.90
2017-06-28T12:29:47.704Z,57.90
2017-06-28T12:32:30.899Z,59.60
2017-06-28T12:34:56.956Z,61.80
2017-06-28T12:37:45.667Z,63.20
2017-06-28T12:40:15.241Z,79.30
2017-06-28T12:42:41.344Z,99.90
2017-06-28T12:45:10.948Z,99.90
2017-06-28T12:47:36.946Z,99.90
2017-06-28T12:50:02.975Z,99.90
2017-06-28T12:52:29.004Z,99.90
2017-06-28T12:54:55.036Z,99.90
2017-06-28T12:57:21.036Z,99.90
2017-06-28T12:59:47.792Z,99.90
2017-06-28T13:02:13.791Z,99.90
2017-06-28T13:04:39.787Z,99.90
2017-06-28T13:07:05.822Z,99.90
2017-06-28T13:09:31.825Z,99.90
2017-06-28T13:11:57.804Z,99.90
2017-06-28T13:14:23.851Z,99.90
2017-06-28T13:16:49.891Z,99.90
2017-06-28T13:19:18.864Z,99.90
2017-06-28T13:21:44.925Z,99.90
2017-06-28T13:24:10.965Z,99.90
2017-06-28T13:26:38.091Z,99.90
2017-06-28T13:29:10.975Z,99.90
2017-06-28T13:31:37.192Z,99.90
2017-06-28T13:34:03.236Z,99.90
2017-06-28T13:36:29.302Z,99.90
2017-06-28T13:39:09.208Z,99.90
2017-06-28T13:41:35.228Z,99.90
2017-06-28T13:44:07.940Z,99.90
2017-06-28T13:46:44.335Z,99.90
2017-06-28T13:49:10.360Z,99.90
2017-06-28T13:51:41.102Z,99.90
2017-06-28T13:54:07.143Z,99.90
2017-06-28T13:56:33.197Z,99.90
2017-06-28T13:58:59.264Z,99.90
2017-06-28T14:01:26.043Z,99.90
2017-06-28T14:03:55.472Z,99.90
2017-06-28T14:06:21.556Z,99.90
2017-06-28T14:08:47.600Z,99.90
2017-06-28T14:11:25.130Z,99.90
2017-06-28T14:13:51.232Z,99.90
2017-06-28T14:16:30.737Z,99.90
2017-06-28T14:18:56.784Z,99.90
2017-06-28T14:21:22.838Z,99.90
2017-06-28T14:23:52.588Z,99.90
2017-06-28T14:26:21.809Z,99.90
2017-06-28T14:28:52.067Z,99.90
2017-06-28T14:31:21.290Z,99.90
2017-06-28T14:33:50.643Z,99.90
2017-06-28T14:36:16.669Z,99.90
2017-06-28T14:38:55.415Z,99.90
2017-06-28T14:41:24.892Z,99.90
2017-06-28T14:43:50.910Z,99.90
2017-06-28T14:46:16.959Z,99.90
2017-06-28T14:48:53.459Z,99.90
2017-06-28T14:51:19.499Z,99.90
2017-06-28T14:53:45.543Z,99.90
2017-06-28T14:56:15.509Z,99.90
2017-06-28T14:58:52.692Z,99.90
2017-06-28T15:01:23.143Z,99.90
2017-06-28T15:03:55.383Z,99.90
2017-06-28T15:06:25.772Z,99.90
2017-06-28T15:08:55.148Z,99.90
2017-06-28T15:11:21.169Z,99.90
2017-06-28T15:13:57.688Z,99.90
2017-06-28T15:16:23.856Z,99.90
2017-06-28T15:18:54.468Z,99.90
2017-06-28T15:21:20.592Z,99.90
2017-06-28T15:23:53.098Z,99.90
2017-06-28T15:26:19.116Z,99.90
2017-06-28T15:28:46.995Z,39.90
2017-06-28T15:31:15.877Z,42.70
2017-06-28T15:33:42.064Z,42.60
2017-06-28T15:36:15.627Z,35.70
2017-06-28T15:38:52.993Z,40.40
2017-06-28T15:41:19.100Z,40.10
2017-06-28T15:43:48.628Z,39.50
2017-06-28T15:46:14.767Z,39.40
2017-06-28T15:48:44.360Z,34.30
2017-06-28T15:51:18.639Z,34.00
2017-06-28T15:54:00.504Z,33.60
2017-06-28T15:56:30.610Z,34.20
2017-06-28T15:58:56.635Z,34.10
2017-06-28T16:01:22.977Z,34.60
2017-06-28T16:03:51.004Z,32.90
2017-06-28T16:06:17.083Z,33.60
2017-06-28T16:08:43.229Z,34.80
2017-06-28T16:11:25.152Z,34.60
2017-06-28T16:14:01.707Z,34.50
2017-06-28T16:16:27.724Z,34.90
2017-06-28T16:18:54.520Z,34.40
2017-06-28T16:21:20.527Z,34.30
2017-06-28T16:23:46.593Z,34.00
2017-06-28T16:26:12.616Z,34.60
2017-06-28T16:28:38.628Z,33.30
2017-06-28T16:31:04.654Z,35.50
2017-06-28T16:33:30.683Z,34.80
2017-06-28T16:35:56.705Z,34.00
2017-06-28T16:38:22.734Z,35.40
2017-06-28T16:40:48.763Z,37.10
2017-06-28T16:43:14.776Z,35.50
2017-06-28T16:45:40.830Z,39.90
2017-06-28T16:48:06.837Z,37.70
2017-06-28T16:50:32.848Z,36.00
2017-06-28T16:52:58.936Z,43.30
2017-06-28T16:55:24.935Z,45.70
2017-06-28T16:57:50.956Z,44.50
2017-06-28T17:00:17.079Z,40.90
2017-06-28T17:02:47.275Z,36.90
2017-06-28T17:05:13.314Z,36.90
2017-06-28T17:07:39.336Z,38.90
2017-06-28T17:10:06.099Z,39.70
2017-06-28T17:12:36.548Z,38.30
2017-06-28T17:15:02.579Z,38.30
2017-06-28T17:17:28.602Z,42.20
2017-06-28T17:19:58.496Z,44.10
2017-06-28T17:22:28.859Z,46.50
2017-06-28T17:24:54.907Z,46.50
2017-06-28T17:27:20.917Z,46.20
2017-06-28T17:29:46.963Z,48.10
2017-06-28T17:32:12.989Z,48.60
2017-06-28T17:34:39.032Z,49.50
2017-06-28T17:39:55.506Z,50.80
2017-06-28T17:42:21.532Z,50.60
2017-06-28T17:44:48.290Z,52.30
2017-06-28T17:47:14.319Z,52.30
2017-06-28T17:49:40.350Z,53.40
2017-06-28T17:52:06.375Z,54.50
2017-06-28T17:54:32.430Z,54.80
2017-06-28T17:56:58.432Z,55.20
2017-06-28T17:59:24.453Z,55.00
2017-06-28T18:01:50.496Z,55.50
2017-06-28T18:04:16.561Z,54.80
2017-06-28T18:06:42.645Z,56.00
2017-06-28T18:09:08.671Z,56.10
2017-06-28T18:11:35.436Z,55.50
2017-06-28T18:14:01.476Z,55.40
2017-06-28T18:16:27.522Z,56.40
2017-06-28T18:18:53.608Z,56.80
2017-06-28T18:21:19.638Z,57.10
2017-06-28T18:23:45.683Z,57.20
2017-06-28T18:26:11.736Z,57.60
2017-06-28T18:28:37.801Z,57.50
2017-06-28T18:31:10.345Z,58.10
2017-06-28T18:33:36.421Z,58.10
2017-06-28T18:36:03.192Z,58.40
2017-06-28T18:38:29.351Z,58.30
2017-06-28T18:40:58.512Z,58.00
2017-06-28T18:43:24.621Z,57.50
2017-06-28T18:45:54.174Z,57.90
2017-06-28T18:48:20.220Z,58.70
2017-06-28T18:50:46.268Z,59.00
2017-06-28T18:53:15.949Z,59.00
2017-06-28T18:55:45.260Z,60.80
2017-06-28T18:58:14.628Z,60.40
2017-06-28T19:00:41.444Z,61.50
2017-06-28T19:03:07.513Z,62.20
2017-06-28T19:05:34.272Z,62.00
2017-06-28T19:08:00.304Z,61.90
2017-06-28T19:10:26.433Z,63.50
2017-06-28T19:12:52.455Z,63.40
2017-06-28T19:15:18.515Z,63.90
2017-06-28T19:17:44.588Z,64.00
2017-06-28T19:20:10.643Z,64.30
2017-06-28T19:22:37.402Z,63.90
2017-06-28T19:25:03.456Z,63.60
2017-06-28T19:27:29.496Z,65.90
2017-06-28T19:30:00.106Z,66.00
2017-06-28T19:35:34.876Z,68.30
2017-06-28T19:38:18.390Z,68.60
2017-06-28T19:40:48.097Z,68.30
2017-06-28T19:46:07.877Z,69.50
2017-06-28T19:48:33.916Z,72.60
2017-06-28T19:50:59.967Z,72.60
2017-06-28T19:53:26.012Z,73.90
2017-06-28T19:55:52.138Z,73.60
2017-06-28T19:58:18.479Z,74.80
2017-06-28T20:00:44.516Z,74.90
2017-06-28T20:03:11.298Z,72.30
2017-06-28T20:05:37.324Z,71.60
2017-06-28T20:08:03.356Z,72.70
2017-06-28T20:10:29.372Z,74.70
2017-06-28T20:12:55.424Z,75.70
2017-06-28T20:15:21.444Z,75.70
2017-06-28T20:17:47.595Z,75.30
2017-06-28T20:20:17.064Z,76.50
2017-06-28T20:23:03.364Z,76.80
2017-06-28T20:25:29.392Z,76.80
2017-06-28T20:27:55.405Z,76.30
2017-06-28T20:30:25.564Z,78.10
2017-06-28T20:32:54.763Z,78.10
2017-06-28T20:35:24.200Z,80.00
2017-06-28T20:37:58.477Z,80.00
2017-06-28T20:40:44.966Z,80.00
2017-06-28T20:43:24.575Z,77.80
2017-06-28T20:49:01.524Z,79.50
2017-06-28T20:51:33.843Z,79.40
2017-06-28T20:54:00.617Z,80.10
2017-06-28T20:56:39.705Z,80.10
2017-06-28T20:59:05.840Z,80.80
2017-06-28T21:01:46.352Z,81.50
2017-06-28T21:04:19.922Z,81.50
2017-06-28T21:06:53.239Z,82.50
2017-06-28T21:09:25.507Z,82.40
2017-06-28T21:11:57.881Z,83.50
2017-06-28T21:14:31.172Z,83.20
2017-06-28T21:16:58.285Z,83.30
2017-06-28T21:19:24.317Z,83.80
2017-06-28T21:21:51.395Z,83.80
2017-06-28T21:24:22.300Z,83.80
2017-06-28T21:27:05.779Z,83.90
2017-06-28T21:29:39.220Z,83.30
2017-06-28T21:32:13.484Z,83.90
2017-06-28T21:34:40.286Z,83.00
2017-06-28T21:37:25.905Z,83.00
2017-06-28T21:39:56.421Z,83.20
2017-06-28T21:42:31.676Z,84.30
2017-06-28T21:45:05.446Z,83.40
2017-06-28T21:47:36.659Z,83.40
2017-06-28T21:50:02.671Z,83.60
2017-06-28T21:52:30.877Z,84.30
2017-06-28T21:55:15.486Z,84.90
2017-06-28T21:57:48.046Z,85.50
2017-06-28T22:00:14.838Z,86.90
2017-06-28T22:02:40.915Z,86.00
2017-06-28T22:05:13.915Z,86.60
2017-06-28T22:07:40.708Z,88.60
2017-06-28T22:10:06.738Z,87.80
2017-06-28T22:12:32.787Z,88.10
2017-06-28T22:14:58.784Z,87.80
2017-06-28T22:17:37.759Z,89.20
2017-06-28T22:20:03.852Z,89.60
2017-06-28T22:22:29.861Z,88.60
2017-06-28T22:24:55.858Z,87.80
2017-06-28T22:27:21.860Z,87.70
2017-06-28T22:29:47.872Z,88.10
2017-06-28T22:32:13.981Z,89.60
2017-06-28T22:34:40.040Z,88.80
2017-06-28T22:37:06.044Z,89.60
2017-06-28T22:39:32.060Z,89.10
2017-06-28T22:41:58.817Z,89.70
2017-06-28T22:44:24.847Z,89.70
2017-06-28T22:46:50.841Z,90.20
2017-06-28T22:49:17.594Z,91.20
2017-06-28T22:51:44.352Z,90.30
2017-06-28T22:54:11.092Z,90.40
2017-06-28T22:56:37.840Z,90.70
2017-06-28T22:59:04.583Z,90.60
2017-06-28T23:01:30.618Z,90.60
2017-06-28T23:03:57.368Z,90.60
2017-06-28T23:06:24.135Z,91.40
2017-06-28T23:08:50.181Z,91.30
2017-06-28T23:11:16.189Z,91.20
2017-06-28T23:13:42.200Z,91.00
2017-06-28T23:16:08.260Z,90.90
2017-06-28T23:18:34.281Z,90.40
2017-06-28T23:21:00.297Z,90.40
2017-06-28T23:23:26.312Z,90.30
2017-06-28T23:25:53.062Z,90.50
2017-06-28T23:28:19.101Z,90.50
2017-06-28T23:30:45.116Z,90.70
2017-06-28T23:33:11.944Z,90.60
2017-06-28T23:35:37.967Z,90.50
2017-06-28T23:38:03.999Z,90.40
2017-06-28T23:40:30.019Z,90.30
2017-06-28T23:42:56.032Z,90.60
2017-06-28T23:45:22.036Z,90.70
2017-06-28T23:47:48.068Z,90.80
2017-06-28T23:50:14.093Z,90.90
2017-06-28T23:52:40.148Z,91.20
2017-06-28T23:55:06.165Z,91.20
2017-06-28T23:57:32.191Z,90.80
2017-06-28T23:59:58.225Z,90.80
